sensor_id;sensor_type;location;lat;lon;timestamp;temperature;humidity
20446;DHT22;10382;49.140;9.234;2022-12-17T00:02:40;-2.90;99.90
20446;DHT22;10382;49.140;9.234;2022-12-17T00:05:24;-2.90;99.90
20446;DHT22;10382;49.140;9.234;2022-12-17T00:08:08;-2.90;99.90
20446;DHT22;10382;49.140;9.234;2022-12-17T00:11:06;-2.90;99.90
20446;DHT22;10382;49.140;9.234;2022-12-17T00:13:52;-3.00;99.90
20446;DHT22;10382;49.140;9.234;2022-12-17T00:16:36;-3.00;99.90
20446;DHT22;10382;49.140;9.234;2022-12-17T00:19:21;-3.00;99.90
20446;DHT22;10382;49.140;9.234;2022-12-17T00:22:05;-3.00;99.90
20446;DHT22;10382;49.140;9.234;2022-12-17T00:24:49;-3.10;99.90
20446;DHT22;10382;49.140;9.234;2022-12-17T00:27:33;-3.00;99.90
20446;DHT22;10382;49.140;9.234;2022-12-17T00:30:19;-3.00;99.90
20446;DHT22;10382;49.140;9.234;2022-12-17T00:33:03;-2.90;99.90
20446;DHT22;10382;49.140;9.234;2022-12-17T00:35:50;-2.90;99.90
20446;DHT22;10382;49.140;9.234;2022-12-17T00:38:34;-2.90;99.90
20446;DHT22;10382;49.140;9.234;2022-12-17T00:41:19;-3.00;99.90
20446;DHT22;10382;49.140;9.234;2022-12-17T00:44:03;-3.20;99.90
20446;DHT22;10382;49.140;9.234;2022-12-17T00:46:49;-3.20;99.90
20446;DHT22;10382;49.140;9.234;2022-12-17T00:49:33;-3.30;99.90
20446;DHT22;10382;49.140;9.234;2022-12-17T00:52:18;-3.20;99.90
20446;DHT22;10382;49.140;9.234;2022-12-17T00:55:02;-3.20;99.90
20446;DHT22;10382;49.140;9.234;2022-12-17T00:57:52;-3.20;99.90
20446;DHT22;10382;49.140;9.234;2022-12-17T01:00:36;-3.20;99.90
20446;DHT22;10382;49.140;9.234;2022-12-17T01:03:21;-3.20;99.90
20446;DHT22;10382;49.140;9.234;2022-12-17T01:06:06;-3.30;99.90
20446;DHT22;10382;49.140;9.234;2022-12-17T01:08:51;-3.40;99.90
20446;DHT22;10382;49.140;9.234;2022-12-17T01:11:35;-3.40;99.90
20446;DHT22;10382;49.140;9.234;2022-12-17T01:14:20;-3.40;99.90
20446;DHT22;10382;49.140;9.234;2022-12-17T01:17:04;-3.40;99.90
20446;DHT22;10382;49.140;9.234;2022-12-17T01:19:50;-3.40;99.90
20446;DHT22;10382;49.140;9.234;2022-12-17T01:22:34;-3.40;99.90
20446;DHT22;10382;49.140;9.234;2022-12-17T01:25:18;-3.30;99.90
20446;DHT22;10382;49.140;9.234;2022-12-17T01:28:03;-3.40;99.90
20446;DHT22;10382;49.140;9.234;2022-12-17T01:30:47;-3.40;99.90
20446;DHT22;10382;49.140;9.234;2022-12-17T01:33:32;-3.30;99.90
20446;DHT22;10382;49.140;9.234;2022-12-17T01:36:17;-3.40;99.90
20446;DHT22;10382;49.140;9.234;2022-12-17T01:39:02;-3.50;99.90
20446;DHT22;10382;49.140;9.234;2022-12-17T01:41:55;-3.60;99.90
20446;DHT22;10382;49.140;9.234;2022-12-17T01:44:46;-3.70;99.90
20446;DHT22;10382;49.140;9.234;2022-12-17T01:47:33;-3.70;99.90
20446;DHT22;10382;49.140;9.234;2022-12-17T01:50:20;-3.70;99.90
20446;DHT22;10382;49.140;9.234;2022-12-17T01:53:07;-3.60;99.90
20446;DHT22;10382;49.140;9.234;2022-12-17T01:56:07;-3.60;99.90
20446;DHT22;10382;49.140;9.234;2022-12-17T01:58:52;-3.60;99.90
20446;DHT22;10382;49.140;9.234;2022-12-17T02:01:36;-3.60;99.90
20446;DHT22;10382;49.140;9.234;2022-12-17T02:04:21;-3.60;99.90
20446;DHT22;10382;49.140;9.234;2022-12-17T02:07:20;-3.60;99.90
20446;DHT22;10382;49.140;9.234;2022-12-17T02:10:19;-3.60;99.90
20446;DHT22;10382;49.140;9.234;2022-12-17T02:13:12;-3.50;99.90
20446;DHT22;10382;49.140;9.234;2022-12-17T02:16:04;-3.50;99.90
20446;DHT22;10382;49.140;9.234;2022-12-17T02:18:51;-3.50;99.90
20446;DHT22;10382;49.140;9.234;2022-12-17T02:21:39;-3.50;99.90
20446;DHT22;10382;49.140;9.234;2022-12-17T02:24:31;-3.40;99.90
20446;DHT22;10382;49.140;9.234;2022-12-17T02:27:21;-3.40;99.90
20446;DHT22;10382;49.140;9.234;2022-12-17T02:30:07;-3.40;99.90
20446;DHT22;10382;49.140;9.234;2022-12-17T02:32:53;-3.50;99.90
20446;DHT22;10382;49.140;9.234;2022-12-17T02:35:40;-3.50;99.90
20446;DHT22;10382;49.140;9.234;2022-12-17T02:38:26;-3.60;99.90
20446;DHT22;10382;49.140;9.234;2022-12-17T02:41:14;-3.70;99.90
20446;DHT22;10382;49.140;9.234;2022-12-17T02:44:14;-3.80;99.90
20446;DHT22;10382;49.140;9.234;2022-12-17T02:47:01;-3.80;99.90
20446;DHT22;10382;49.140;9.234;2022-12-17T02:49:47;-3.80;99.90
20446;DHT22;10382;49.140;9.234;2022-12-17T02:52:33;-3.80;99.90
20446;DHT22;10382;49.140;9.234;2022-12-17T02:55:19;-3.80;99.90
20446;DHT22;10382;49.140;9.234;2022-12-17T02:58:04;-3.80;99.90
20446;DHT22;10382;49.140;9.234;2022-12-17T03:00:49;-3.80;99.90
20446;DHT22;10382;49.140;9.234;2022-12-17T03:03:34;-3.70;99.90
20446;DHT22;10382;49.140;9.234;2022-12-17T03:06:18;-3.70;99.90
20446;DHT22;10382;49.140;9.234;2022-12-17T03:09:02;-3.70;99.90
20446;DHT22;10382;49.140;9.234;2022-12-17T03:11:47;-3.70;99.90
20446;DHT22;10382;49.140;9.234;2022-12-17T03:14:31;-3.70;99.90
20446;DHT22;10382;49.140;9.234;2022-12-17T03:17:17;-3.70;99.90
20446;DHT22;10382;49.140;9.234;2022-12-17T03:20:02;-3.70;99.90
20446;DHT22;10382;49.140;9.234;2022-12-17T03:22:47;-3.80;99.90
20446;DHT22;10382;49.140;9.234;2022-12-17T03:25:32;-3.80;99.90
20446;DHT22;10382;49.140;9.234;2022-12-17T03:28:16;-3.80;99.90
20446;DHT22;10382;49.140;9.234;2022-12-17T03:31:00;-3.80;99.90
20446;DHT22;10382;49.140;9.234;2022-12-17T03:33:46;-3.90;99.90
20446;DHT22;10382;49.140;9.234;2022-12-17T03:36:30;-3.90;99.90
20446;DHT22;10382;49.140;9.234;2022-12-17T03:39:15;-3.90;99.90
20446;DHT22;10382;49.140;9.234;2022-12-17T03:41:59;-4.00;99.90
20446;DHT22;10382;49.140;9.234;2022-12-17T03:44:43;-4.00;99.90
20446;DHT22;10382;49.140;9.234;2022-12-17T03:47:31;-4.00;99.90
20446;DHT22;10382;49.140;9.234;2022-12-17T03:50:17;-4.00;99.90
20446;DHT22;10382;49.140;9.234;2022-12-17T03:53:03;-4.00;99.90
20446;DHT22;10382;49.140;9.234;2022-12-17T03:55:47;-4.10;99.90
20446;DHT22;10382;49.140;9.234;2022-12-17T03:58:32;-4.10;99.90
20446;DHT22;10382;49.140;9.234;2022-12-17T04:01:16;-4.00;99.90
20446;DHT22;10382;49.140;9.234;2022-12-17T04:04:00;-4.00;99.90
20446;DHT22;10382;49.140;9.234;2022-12-17T04:06:46;-4.00;99.90
20446;DHT22;10382;49.140;9.234;2022-12-17T04:09:30;-4.00;99.90
20446;DHT22;10382;49.140;9.234;2022-12-17T04:12:15;-4.00;99.90
20446;DHT22;10382;49.140;9.234;2022-12-17T04:14:59;-4.00;99.90
20446;DHT22;10382;49.140;9.234;2022-12-17T04:17:43;-4.10;99.90
20446;DHT22;10382;49.140;9.234;2022-12-17T04:20:27;-4.10;99.90
20446;DHT22;10382;49.140;9.234;2022-12-17T04:23:13;-4.10;99.90
20446;DHT22;10382;49.140;9.234;2022-12-17T04:25:57;-4.10;99.90
20446;DHT22;10382;49.140;9.234;2022-12-17T04:28:53;-4.10;99.90
20446;DHT22;10382;49.140;9.234;2022-12-17T04:31:37;-4.10;99.90
20446;DHT22;10382;49.140;9.234;2022-12-17T04:34:21;-4.10;99.90
20446;DHT22;10382;49.140;9.234;2022-12-17T04:37:06;-4.00;99.90
20446;DHT22;10382;49.140;9.234;2022-12-17T04:39:51;-4.00;99.90
20446;DHT22;10382;49.140;9.234;2022-12-17T04:42:36;-4.00;99.90
20446;DHT22;10382;49.140;9.234;2022-12-17T04:45:20;-4.00;99.90
20446;DHT22;10382;49.140;9.234;2022-12-17T04:48:06;-3.90;99.90
20446;DHT22;10382;49.140;9.234;2022-12-17T04:50:51;-3.90;99.90
20446;DHT22;10382;49.140;9.234;2022-12-17T04:53:35;-3.90;99.90
20446;DHT22;10382;49.140;9.234;2022-12-17T04:56:23;-3.80;99.90
20446;DHT22;10382;49.140;9.234;2022-12-17T04:59:07;-3.80;99.90
20446;DHT22;10382;49.140;9.234;2022-12-17T05:01:52;-3.70;99.90
20446;DHT22;10382;49.140;9.234;2022-12-17T05:04:36;-3.70;99.90
20446;DHT22;10382;49.140;9.234;2022-12-17T05:07:20;-3.50;99.90
20446;DHT22;10382;49.140;9.234;2022-12-17T05:10:05;-3.50;99.90
20446;DHT22;10382;49.140;9.234;2022-12-17T05:12:56;-3.50;99.90
20446;DHT22;10382;49.140;9.234;2022-12-17T05:15:41;-3.40;99.90
20446;DHT22;10382;49.140;9.234;2022-12-17T05:18:25;-3.30;99.90
20446;DHT22;10382;49.140;9.234;2022-12-17T05:21:09;-3.30;99.90
20446;DHT22;10382;49.140;9.234;2022-12-17T05:23:54;-3.30;99.90
20446;DHT22;10382;49.140;9.234;2022-12-17T05:26:38;-3.30;99.90
20446;DHT22;10382;49.140;9.234;2022-12-17T05:29:24;-3.40;99.90
20446;DHT22;10382;49.140;9.234;2022-12-17T05:32:08;-3.40;99.90
20446;DHT22;10382;49.140;9.234;2022-12-17T05:34:52;-3.30;99.90
20446;DHT22;10382;49.140;9.234;2022-12-17T05:37:36;-3.30;99.90
20446;DHT22;10382;49.140;9.234;2022-12-17T05:40:21;-3.20;99.90
20446;DHT22;10382;49.140;9.234;2022-12-17T05:43:06;-3.20;99.90
20446;DHT22;10382;49.140;9.234;2022-12-17T05:45:57;-3.20;99.90
20446;DHT22;10382;49.140;9.234;2022-12-17T05:48:41;-3.30;99.90
20446;DHT22;10382;49.140;9.234;2022-12-17T05:51:25;-3.20;99.90
20446;DHT22;10382;49.140;9.234;2022-12-17T05:54:10;-3.20;99.90
20446;DHT22;10382;49.140;9.234;2022-12-17T05:56:54;-3.30;99.90
20446;DHT22;10382;49.140;9.234;2022-12-17T05:59:39;-3.40;99.90
20446;DHT22;10382;49.140;9.234;2022-12-17T06:02:25;-3.40;99.90
20446;DHT22;10382;49.140;9.234;2022-12-17T06:05:09;-3.50;99.90
20446;DHT22;10382;49.140;9.234;2022-12-17T06:08:01;-3.50;99.90
20446;DHT22;10382;49.140;9.234;2022-12-17T06:10:46;-3.50;99.90
20446;DHT22;10382;49.140;9.234;2022-12-17T06:13:30;-3.50;99.90
20446;DHT22;10382;49.140;9.234;2022-12-17T06:16:14;-3.40;99.90
20446;DHT22;10382;49.140;9.234;2022-12-17T06:19:00;-3.60;99.90
20446;DHT22;10382;49.140;9.234;2022-12-17T06:21:44;-3.60;99.90
20446;DHT22;10382;49.140;9.234;2022-12-17T06:24:28;-3.70;99.90
20446;DHT22;10382;49.140;9.234;2022-12-17T06:27:13;-3.80;99.90
20446;DHT22;10382;49.140;9.234;2022-12-17T06:29:57;-4.00;99.90
20446;DHT22;10382;49.140;9.234;2022-12-17T06:32:41;-4.00;99.90
20446;DHT22;10382;49.140;9.234;2022-12-17T06:35:26;-4.00;99.90
20446;DHT22;10382;49.140;9.234;2022-12-17T06:38:11;-4.10;99.90
20446;DHT22;10382;49.140;9.234;2022-12-17T06:40:55;-4.00;99.90
20446;DHT22;10382;49.140;9.234;2022-12-17T06:43:43;-3.90;99.90
20446;DHT22;10382;49.140;9.234;2022-12-17T06:46:27;-3.80;99.90
20446;DHT22;10382;49.140;9.234;2022-12-17T06:49:11;-3.70;99.90
20446;DHT22;10382;49.140;9.234;2022-12-17T06:51:56;-3.70;99.90
20446;DHT22;10382;49.140;9.234;2022-12-17T06:54:41;-3.50;99.90
20446;DHT22;10382;49.140;9.234;2022-12-17T06:57:25;-3.50;99.90
20446;DHT22;10382;49.140;9.234;2022-12-17T07:00:13;-3.40;99.90
20446;DHT22;10382;49.140;9.234;2022-12-17T07:02:58;-3.50;99.90
20446;DHT22;10382;49.140;9.234;2022-12-17T07:05:42;-3.70;99.90
20446;DHT22;10382;49.140;9.234;2022-12-17T07:08:28;-3.80;99.90
20446;DHT22;10382;49.140;9.234;2022-12-17T07:11:12;-3.70;99.90
20446;DHT22;10382;49.140;9.234;2022-12-17T07:13:56;-3.70;99.90
20446;DHT22;10382;49.140;9.234;2022-12-17T07:16:40;-3.60;99.90
20446;DHT22;10382;49.140;9.234;2022-12-17T07:19:24;-3.60;99.90
20446;DHT22;10382;49.140;9.234;2022-12-17T07:22:09;-3.50;99.90
20446;DHT22;10382;49.140;9.234;2022-12-17T07:24:55;-3.40;99.90
20446;DHT22;10382;49.140;9.234;2022-12-17T07:27:39;-3.40;99.90
20446;DHT22;10382;49.140;9.234;2022-12-17T07:30:23;-3.30;99.90
20446;DHT22;10382;49.140;9.234;2022-12-17T07:33:09;-3.20;99.90
20446;DHT22;10382;49.140;9.234;2022-12-17T07:35:54;-3.20;99.90
20446;DHT22;10382;49.140;9.234;2022-12-17T07:38:38;-3.00;99.90
20446;DHT22;10382;49.140;9.234;2022-12-17T07:41:24;-3.00;99.90
20446;DHT22;10382;49.140;9.234;2022-12-17T07:44:08;-2.90;99.90
20446;DHT22;10382;49.140;9.234;2022-12-17T07:46:52;-2.80;99.90
20446;DHT22;10382;49.140;9.234;2022-12-17T07:49:36;-2.70;99.90
20446;DHT22;10382;49.140;9.234;2022-12-17T07:52:20;-2.70;99.90
20446;DHT22;10382;49.140;9.234;2022-12-17T07:55:05;-2.60;99.90
20446;DHT22;10382;49.140;9.234;2022-12-17T07:57:58;-2.70;99.90
20446;DHT22;10382;49.140;9.234;2022-12-17T08:00:43;-2.70;99.90
20446;DHT22;10382;49.140;9.234;2022-12-17T08:03:27;-2.80;99.90
20446;DHT22;10382;49.140;9.234;2022-12-17T08:06:11;-2.80;99.90
20446;DHT22;10382;49.140;9.234;2022-12-17T08:08:54;-2.90;99.90
20446;DHT22;10382;49.140;9.234;2022-12-17T08:11:39;-2.90;99.90
20446;DHT22;10382;49.140;9.234;2022-12-17T08:14:24;-2.90;99.90
20446;DHT22;10382;49.140;9.234;2022-12-17T08:17:09;-2.90;99.90
20446;DHT22;10382;49.140;9.234;2022-12-17T08:19:53;-2.90;99.90
20446;DHT22;10382;49.140;9.234;2022-12-17T08:22:37;-3.10;99.90
20446;DHT22;10382;49.140;9.234;2022-12-17T08:25:21;-3.20;99.90
20446;DHT22;10382;49.140;9.234;2022-12-17T08:28:07;-3.20;99.90
20446;DHT22;10382;49.140;9.234;2022-12-17T08:30:53;-3.30;99.90
20446;DHT22;10382;49.140;9.234;2022-12-17T08:33:37;-3.30;99.90
20446;DHT22;10382;49.140;9.234;2022-12-17T08:36:22;-3.40;99.90
20446;DHT22;10382;49.140;9.234;2022-12-17T08:39:06;-3.60;99.90
20446;DHT22;10382;49.140;9.234;2022-12-17T08:41:51;-3.50;99.90
20446;DHT22;10382;49.140;9.234;2022-12-17T08:44:35;-3.70;99.90
20446;DHT22;10382;49.140;9.234;2022-12-17T08:47:21;-3.80;99.90
20446;DHT22;10382;49.140;9.234;2022-12-17T08:50:06;-3.80;99.90
20446;DHT22;10382;49.140;9.234;2022-12-17T08:52:56;-3.70;99.90
20446;DHT22;10382;49.140;9.234;2022-12-17T08:55:41;-3.60;99.90
20446;DHT22;10382;49.140;9.234;2022-12-17T08:58:25;-3.40;99.90
20446;DHT22;10382;49.140;9.234;2022-12-17T09:01:09;-3.30;99.90
20446;DHT22;10382;49.140;9.234;2022-12-17T09:03:54;-3.20;99.90
20446;DHT22;10382;49.140;9.234;2022-12-17T09:06:39;-3.10;99.90
20446;DHT22;10382;49.140;9.234;2022-12-17T09:09:25;-3.10;99.90
20446;DHT22;10382;49.140;9.234;2022-12-17T09:12:10;-3.10;99.90
20446;DHT22;10382;49.140;9.234;2022-12-17T09:14:54;-3.10;99.90
20446;DHT22;10382;49.140;9.234;2022-12-17T09:17:38;-3.00;99.90
20446;DHT22;10382;49.140;9.234;2022-12-17T09:20:24;-2.80;99.90
20446;DHT22;10382;49.140;9.234;2022-12-17T09:23:08;-2.60;99.90
20446;DHT22;10382;49.140;9.234;2022-12-17T09:25:53;-2.50;99.90
20446;DHT22;10382;49.140;9.234;2022-12-17T09:28:38;-2.50;99.90
20446;DHT22;10382;49.140;9.234;2022-12-17T09:31:22;-2.60;99.90
20446;DHT22;10382;49.140;9.234;2022-12-17T09:34:06;-2.70;99.90
20446;DHT22;10382;49.140;9.234;2022-12-17T09:36:52;-2.80;99.90
20446;DHT22;10382;49.140;9.234;2022-12-17T09:39:36;-2.80;99.90
20446;DHT22;10382;49.140;9.234;2022-12-17T09:42:24;-3.00;99.90
20446;DHT22;10382;49.140;9.234;2022-12-17T09:45:13;-3.10;99.90
20446;DHT22;10382;49.140;9.234;2022-12-17T09:48:04;-3.20;99.90
20446;DHT22;10382;49.140;9.234;2022-12-17T09:50:51;-3.30;99.90
20446;DHT22;10382;49.140;9.234;2022-12-17T09:53:41;-3.30;99.90
20446;DHT22;10382;49.140;9.234;2022-12-17T09:56:29;-3.30;99.90
20446;DHT22;10382;49.140;9.234;2022-12-17T09:59:19;-3.30;99.90
20446;DHT22;10382;49.140;9.234;2022-12-17T10:02:12;-3.10;99.90
20446;DHT22;10382;49.140;9.234;2022-12-17T10:04:58;-2.80;99.90
20446;DHT22;10382;49.140;9.234;2022-12-17T10:07:45;-2.50;99.90
20446;DHT22;10382;49.140;9.234;2022-12-17T10:10:32;-2.20;99.90
20446;DHT22;10382;49.140;9.234;2022-12-17T10:13:15;-1.90;99.90
20446;DHT22;10382;49.140;9.234;2022-12-17T10:16:00;-1.60;99.90
20446;DHT22;10382;49.140;9.234;2022-12-17T10:18:45;-1.30;99.90
20446;DHT22;10382;49.140;9.234;2022-12-17T10:21:30;-1.10;99.90
20446;DHT22;10382;49.140;9.234;2022-12-17T10:24:15;-0.90;99.90
20446;DHT22;10382;49.140;9.234;2022-12-17T10:27:07;-0.60;99.90
20446;DHT22;10382;49.140;9.234;2022-12-17T10:29:52;-0.30;99.90
20446;DHT22;10382;49.140;9.234;2022-12-17T10:32:37;0.10;99.90
20446;DHT22;10382;49.140;9.234;2022-12-17T10:35:24;0.50;99.90
20446;DHT22;10382;49.140;9.234;2022-12-17T10:38:10;0.90;99.90
20446;DHT22;10382;49.140;9.234;2022-12-17T10:40:55;1.20;99.90
20446;DHT22;10382;49.140;9.234;2022-12-17T10:43:41;1.30;99.90
20446;DHT22;10382;49.140;9.234;2022-12-17T10:46:27;1.50;99.90
20446;DHT22;10382;49.140;9.234;2022-12-17T10:49:14;1.80;99.90
20446;DHT22;10382;49.140;9.234;2022-12-17T10:52:01;1.90;99.90
20446;DHT22;10382;49.140;9.234;2022-12-17T10:55:00;2.00;99.90
20446;DHT22;10382;49.140;9.234;2022-12-17T10:57:46;2.20;99.90
20446;DHT22;10382;49.140;9.234;2022-12-17T11:00:35;2.40;99.90
20446;DHT22;10382;49.140;9.234;2022-12-17T11:03:26;2.50;99.90
20446;DHT22;10382;49.140;9.234;2022-12-17T11:06:21;2.30;99.90
20446;DHT22;10382;49.140;9.234;2022-12-17T11:09:13;2.10;99.90
20446;DHT22;10382;49.140;9.234;2022-12-17T11:12:01;2.00;99.90
20446;DHT22;10382;49.140;9.234;2022-12-17T11:14:51;2.10;99.90
20446;DHT22;10382;49.140;9.234;2022-12-17T11:17:39;2.70;99.90
20446;DHT22;10382;49.140;9.234;2022-12-17T11:20:30;4.30;99.90
20446;DHT22;10382;49.140;9.234;2022-12-17T11:23:18;5.50;99.90
20446;DHT22;10382;49.140;9.234;2022-12-17T11:26:06;5.60;99.90
20446;DHT22;10382;49.140;9.234;2022-12-17T11:28:52;5.30;99.90
20446;DHT22;10382;49.140;9.234;2022-12-17T11:31:46;4.90;99.90
20446;DHT22;10382;49.140;9.234;2022-12-17T11:34:53;4.50;99.90
20446;DHT22;10382;49.140;9.234;2022-12-17T11:37:45;4.10;99.90
20446;DHT22;10382;49.140;9.234;2022-12-17T11:40:37;3.80;99.90
20446;DHT22;10382;49.140;9.234;2022-12-17T11:43:28;3.40;99.90
20446;DHT22;10382;49.140;9.234;2022-12-17T11:46:23;3.20;99.90
20446;DHT22;10382;49.140;9.234;2022-12-17T11:49:16;3.00;99.90
20446;DHT22;10382;49.140;9.234;2022-12-17T11:52:10;3.00;99.90
20446;DHT22;10382;49.140;9.234;2022-12-17T11:55:07;3.00;99.90
20446;DHT22;10382;49.140;9.234;2022-12-17T11:57:59;3.00;99.90
20446;DHT22;10382;49.140;9.234;2022-12-17T12:00:52;3.10;99.90
20446;DHT22;10382;49.140;9.234;2022-12-17T12:03:53;3.00;99.90
20446;DHT22;10382;49.140;9.234;2022-12-17T12:06:47;3.00;99.90
20446;DHT22;10382;49.140;9.234;2022-12-17T12:09:39;2.90;99.90
20446;DHT22;10382;49.140;9.234;2022-12-17T12:12:35;2.80;99.90
20446;DHT22;10382;49.140;9.234;2022-12-17T12:15:26;2.70;99.90
20446;DHT22;10382;49.140;9.234;2022-12-17T12:18:14;2.70;99.90
20446;DHT22;10382;49.140;9.234;2022-12-17T12:21:10;2.50;99.90
20446;DHT22;10382;49.140;9.234;2022-12-17T12:24:10;2.40;99.90
20446;DHT22;10382;49.140;9.234;2022-12-17T12:27:03;2.30;99.90
20446;DHT22;10382;49.140;9.234;2022-12-17T12:29:53;2.30;99.90
20446;DHT22;10382;49.140;9.234;2022-12-17T12:32:55;2.20;99.90
20446;DHT22;10382;49.140;9.234;2022-12-17T12:35:42;2.30;99.90
20446;DHT22;10382;49.140;9.234;2022-12-17T12:38:43;2.50;99.90
20446;DHT22;10382;49.140;9.234;2022-12-17T12:41:35;2.70;99.90
20446;DHT22;10382;49.140;9.234;2022-12-17T12:44:29;2.80;99.90
20446;DHT22;10382;49.140;9.234;2022-12-17T12:47:20;2.90;99.90
20446;DHT22;10382;49.140;9.234;2022-12-17T12:50:12;3.00;99.90
20446;DHT22;10382;49.140;9.234;2022-12-17T12:52:59;3.20;99.90
20446;DHT22;10382;49.140;9.234;2022-12-17T12:55:44;3.40;99.90
20446;DHT22;10382;49.140;9.234;2022-12-17T12:58:29;3.80;99.90
20446;DHT22;10382;49.140;9.234;2022-12-17T13:01:17;4.10;99.90
20446;DHT22;10382;49.140;9.234;2022-12-17T13:04:12;4.50;99.90
20446;DHT22;10382;49.140;9.234;2022-12-17T13:07:00;4.50;99.90
20446;DHT22;10382;49.140;9.234;2022-12-17T13:09:37;3.90;99.90
20446;DHT22;10382;49.140;9.234;2022-12-17T13:12:21;3.50;99.90
20446;DHT22;10382;49.140;9.234;2022-12-17T13:14:53;3.80;99.90
20446;DHT22;10382;49.140;9.234;2022-12-17T13:17:27;4.20;99.90
20446;DHT22;10382;49.140;9.234;2022-12-17T13:20:03;4.90;99.90
20446;DHT22;10382;49.140;9.234;2022-12-17T13:22:31;5.90;99.90
20446;DHT22;10382;49.140;9.234;2022-12-17T13:25:15;6.90;99.90
20446;DHT22;10382;49.140;9.234;2022-12-17T13:27:42;8.00;99.90
20446;DHT22;10382;49.140;9.234;2022-12-17T13:30:22;8.80;97.00
20446;DHT22;10382;49.140;9.234;2022-12-17T13:33:07;9.40;92.70
20446;DHT22;10382;49.140;9.234;2022-12-17T13:35:48;9.70;90.30
20446;DHT22;10382;49.140;9.234;2022-12-17T13:38:25;10.10;84.00
20446;DHT22;10382;49.140;9.234;2022-12-17T13:41:05;10.10;81.40
20446;DHT22;10382;49.140;9.234;2022-12-17T13:43:38;10.00;78.50
20446;DHT22;10382;49.140;9.234;2022-12-17T13:46:05;9.50;78.80
20446;DHT22;10382;49.140;9.234;2022-12-17T13:48:33;8.90;80.30
20446;DHT22;10382;49.140;9.234;2022-12-17T13:51:02;8.70;80.40
20446;DHT22;10382;49.140;9.234;2022-12-17T13:53:31;8.10;80.90
20446;DHT22;10382;49.140;9.234;2022-12-17T13:55:59;7.40;83.60
20446;DHT22;10382;49.140;9.234;2022-12-17T13:58:28;6.90;86.60
20446;DHT22;10382;49.140;9.234;2022-12-17T14:01:13;6.80;89.60
20446;DHT22;10382;49.140;9.234;2022-12-17T14:03:47;7.00;90.10
20446;DHT22;10382;49.140;9.234;2022-12-17T14:06:14;7.30;89.20
20446;DHT22;10382;49.140;9.234;2022-12-17T14:08:42;7.10;86.90
20446;DHT22;10382;49.140;9.234;2022-12-17T14:11:10;6.70;87.70
20446;DHT22;10382;49.140;9.234;2022-12-17T14:13:55;6.00;90.20
20446;DHT22;10382;49.140;9.234;2022-12-17T14:16:22;5.40;91.70
20446;DHT22;10382;49.140;9.234;2022-12-17T14:18:52;5.20;92.60
20446;DHT22;10382;49.140;9.234;2022-12-17T14:21:21;4.90;93.50
20446;DHT22;10382;49.140;9.234;2022-12-17T14:23:50;4.50;94.50
20446;DHT22;10382;49.140;9.234;2022-12-17T14:26:18;4.10;95.40
20446;DHT22;10382;49.140;9.234;2022-12-17T14:28:48;3.60;97.60
20446;DHT22;10382;49.140;9.234;2022-12-17T14:31:19;3.20;99.10
20446;DHT22;10382;49.140;9.234;2022-12-17T14:33:46;2.90;99.90
20446;DHT22;10382;49.140;9.234;2022-12-17T14:36:20;2.60;99.90
20446;DHT22;10382;49.140;9.234;2022-12-17T14:38:52;2.20;99.90
20446;DHT22;10382;49.140;9.234;2022-12-17T14:41:20;2.10;99.90
20446;DHT22;10382;49.140;9.234;2022-12-17T14:44:16;1.80;99.90
20446;DHT22;10382;49.140;9.234;2022-12-17T14:46:44;1.70;99.90
20446;DHT22;10382;49.140;9.234;2022-12-17T14:49:15;1.40;99.90
20446;DHT22;10382;49.140;9.234;2022-12-17T14:51:44;1.30;99.90
20446;DHT22;10382;49.140;9.234;2022-12-17T14:54:18;1.10;99.90
20446;DHT22;10382;49.140;9.234;2022-12-17T14:56:46;0.90;99.90
20446;DHT22;10382;49.140;9.234;2022-12-17T14:59:25;0.80;99.90
20446;DHT22;10382;49.140;9.234;2022-12-17T15:01:53;0.60;99.90
20446;DHT22;10382;49.140;9.234;2022-12-17T15:04:20;0.50;99.90
20446;DHT22;10382;49.140;9.234;2022-12-17T15:06:49;0.40;99.90
20446;DHT22;10382;49.140;9.234;2022-12-17T15:09:19;0.30;99.90
20446;DHT22;10382;49.140;9.234;2022-12-17T15:11:46;0.20;99.90
20446;DHT22;10382;49.140;9.234;2022-12-17T15:14:13;0.00;99.90
20446;DHT22;10382;49.140;9.234;2022-12-17T15:16:45;-0.10;99.90
20446;DHT22;10382;49.140;9.234;2022-12-17T15:19:12;-0.20;99.90
20446;DHT22;10382;49.140;9.234;2022-12-17T15:21:40;-0.30;99.90
20446;DHT22;10382;49.140;9.234;2022-12-17T15:24:14;-0.40;99.90
20446;DHT22;10382;49.140;9.234;2022-12-17T15:26:43;-0.50;99.90
20446;DHT22;10382;49.140;9.234;2022-12-17T15:29:11;-0.60;99.90
20446;DHT22;10382;49.140;9.234;2022-12-17T15:31:41;-0.60;99.90
20446;DHT22;10382;49.140;9.234;2022-12-17T15:34:12;-0.70;99.90
20446;DHT22;10382;49.140;9.234;2022-12-17T15:36:40;-0.80;99.90
20446;DHT22;10382;49.140;9.234;2022-12-17T15:39:07;-0.80;99.90
20446;DHT22;10382;49.140;9.234;2022-12-17T15:41:35;-0.90;99.90
20446;DHT22;10382;49.140;9.234;2022-12-17T15:44:19;-0.90;99.90
20446;DHT22;10382;49.140;9.234;2022-12-17T15:46:46;-1.00;99.90
20446;DHT22;10382;49.140;9.234;2022-12-17T15:49:13;-1.00;99.90
20446;DHT22;10382;49.140;9.234;2022-12-17T15:51:40;-1.10;99.90
20446;DHT22;10382;49.140;9.234;2022-12-17T15:54:07;-1.20;99.90
20446;DHT22;10382;49.140;9.234;2022-12-17T15:56:35;-1.30;99.90
20446;DHT22;10382;49.140;9.234;2022-12-17T15:59:02;-1.30;99.90
20446;DHT22;10382;49.140;9.234;2022-12-17T16:01:29;-1.30;99.90
20446;DHT22;10382;49.140;9.234;2022-12-17T16:03:56;-1.40;99.90
20446;DHT22;10382;49.140;9.234;2022-12-17T16:06:23;-1.40;99.90
20446;DHT22;10382;49.140;9.234;2022-12-17T16:08:50;-1.50;99.90
20446;DHT22;10382;49.140;9.234;2022-12-17T16:11:17;-1.50;99.90
20446;DHT22;10382;49.140;9.234;2022-12-17T16:13:45;-1.50;99.90
20446;DHT22;10382;49.140;9.234;2022-12-17T16:16:12;-1.60;99.90
20446;DHT22;10382;49.140;9.234;2022-12-17T16:18:39;-1.70;99.90
20446;DHT22;10382;49.140;9.234;2022-12-17T16:21:07;-1.80;99.90
20446;DHT22;10382;49.140;9.234;2022-12-17T16:23:34;-1.90;99.90
20446;DHT22;10382;49.140;9.234;2022-12-17T16:26:03;-1.90;99.90
20446;DHT22;10382;49.140;9.234;2022-12-17T16:28:30;-1.90;99.90
20446;DHT22;10382;49.140;9.234;2022-12-17T16:30:59;-2.00;99.90
20446;DHT22;10382;49.140;9.234;2022-12-17T16:33:30;-2.10;99.90
20446;DHT22;10382;49.140;9.234;2022-12-17T16:35:57;-2.20;99.90
20446;DHT22;10382;49.140;9.234;2022-12-17T16:38:23;-2.30;99.90
20446;DHT22;10382;49.140;9.234;2022-12-17T16:40:53;-2.30;99.90
20446;DHT22;10382;49.140;9.234;2022-12-17T16:43:20;-2.50;99.90
20446;DHT22;10382;49.140;9.234;2022-12-17T16:45:49;-2.70;99.90
20446;DHT22;10382;49.140;9.234;2022-12-17T16:48:18;-2.80;99.90
20446;DHT22;10382;49.140;9.234;2022-12-17T16:50:46;-2.90;99.90
20446;DHT22;10382;49.140;9.234;2022-12-17T16:53:13;-3.00;99.90
20446;DHT22;10382;49.140;9.234;2022-12-17T16:55:42;-3.00;99.90
20446;DHT22;10382;49.140;9.234;2022-12-17T16:58:12;-3.10;99.90
20446;DHT22;10382;49.140;9.234;2022-12-17T17:00:40;-3.20;99.90
20446;DHT22;10382;49.140;9.234;2022-12-17T17:03:08;-3.40;99.90
20446;DHT22;10382;49.140;9.234;2022-12-17T17:05:38;-3.40;99.90
20446;DHT22;10382;49.140;9.234;2022-12-17T17:08:05;-3.50;99.90
20446;DHT22;10382;49.140;9.234;2022-12-17T17:10:34;-3.40;99.90
20446;DHT22;10382;49.140;9.234;2022-12-17T17:13:01;-3.40;99.90